Time;durP1;ratioP1;P1;durP2;ratioP2;P2;SDS_P1;SDS_P2;PMS_P1;PMS_P2;Temp;Humidity;BMP_temperature;BMP_pressure;BME280_temperature;BME280_humidity;BME280_pressure;Samples;Min_cycle;Max_cycle;Signal;HPM_P1;HPM_P2
2023/04/14 00:01:37;;;;;;;;;;;;;;;16.30;47.92;100080.97;5016274;28;1047;-42
2023/04/14 00:04:02;;;;;;;;;;;;;;;16.20;46.89;100083.78;5016237;28;1103;-39
2023/04/14 00:06:28;;;;;;;;;;;;;;;15.98;46.42;100085.06;5016298;28;1142;-42
2023/04/14 00:08:54;;;;;;;;;;;;;;;16.57;47.27;100087.81;5016576;28;973;-44
2023/04/14 00:11:20;;;;;;;;;;;;;;;16.65;48.21;100080.88;5020584;28;1977;-40
2023/04/14 00:13:45;;;;;;;;;;;;;;;16.62;48.52;100082.28;5015854;28;1106;-39
2023/04/14 00:16:11;;;;;;;;;;;;;;;18.14;46.68;100076.16;5016341;28;1118;-40
2023/04/14 00:18:36;;;;;;;;;;;;;;;16.83;48.60;100076.56;5016341;28;1249;-38
2023/04/14 00:21:02;;;;;;;;;;;;;;;16.43;48.26;100088.50;5016426;28;1221;-40
2023/04/14 00:23:28;;;;;;;;;;;;;;;16.30;47.18;100080.13;5027761;28;1202;-41
2023/04/14 00:25:53;;;;;;;;;;;;;;;16.17;46.51;100081.59;5015883;28;1086;-40
2023/04/14 00:28:19;;;;;;;;;;;;;;;16.23;47.15;100085.97;5015808;28;1063;-40
2023/04/14 00:30:46;;;;;;;;;;;;;;;16.51;47.75;100092.56;5014942;28;1907;-43
2023/04/14 00:33:11;;;;;;;;;;;;;;;16.11;47.33;100091.00;5014794;28;1156;-38
2023/04/14 00:35:37;;;;;;;;;;;;;;;17.36;47.36;100089.41;5021835;28;877;-45
2023/04/14 00:38:02;;;;;;;;;;;;;;;16.51;48.13;100086.22;5014607;28;1175;-43
2023/04/14 00:40:28;;;;;;;;;;;;;;;16.26;47.47;100085.38;5018964;28;1139;-44
2023/04/14 00:42:54;;;;;;;;;;;;;;;16.86;47.98;100086.97;5019720;28;1075;-42
2023/04/14 00:45:20;;;;;;;;;;;;;;;16.30;47.92;100080.97;5018308;28;1380;-39
2023/04/14 00:47:45;;;;;;;;;;;;;;;16.26;47.61;100085.38;5017978;28;1495;-40
2023/04/14 00:50:12;;;;;;;;;;;;;;;17.12;47.61;100072.97;5018543;28;1248;-38
2023/04/14 00:52:37;;;;;;;;;;;;;;;16.33;48.18;100080.38;5019855;28;1914;-40
2023/04/14 00:55:04;;;;;;;;;;;;;;;16.20;47.71;100078.28;5018326;28;1162;-40
2023/04/14 00:57:30;;;;;;;;;;;;;;;17.07;47.83;100065.59;5019305;28;1064;-42
2023/04/14 00:59:59;;;;;;;;;;;;;;;16.48;47.84;100075.84;5026901;28;876;-42
2023/04/14 01:02:25;;;;;;;;;;;;;;;16.19;47.32;100065.69;5019646;28;1214;-40
2023/04/14 01:04:50;;;;;;;;;;;;;;;16.16;46.33;100066.25;5018320;28;1308;-44
2023/04/14 01:07:19;;;;;;;;;;;;;;;17.32;47.00;100050.72;5018976;28;1027;-38
2023/04/14 01:09:45;;;;;;;;;;;;;;;16.34;48.33;100059.22;5019567;28;1107;-40
2023/04/14 01:12:25;;;;;;;;;;;;;;;16.29;47.02;100062.84;5019786;28;1914;-41
2023/04/14 01:15:02;;;;;;;;;;;;;;;16.32;47.14;100055.97;5019310;28;1072;-39
2023/04/14 01:17:36;;;;;;;;;;;;;;;16.54;47.99;100047.25;5001518;28;1335;-38
2023/04/14 01:20:05;;;;;;;;;;;;;;;16.19;47.49;100057.47;5019215;28;1167;-42
2023/04/14 01:22:32;;;;;;;;;;;;;;;17.02;47.14;100058.22;5024239;28;1099;-41
2023/04/14 01:25:15;;;;;;;;;;;;;;;16.32;47.71;100062.25;5022101;28;1074;-40
2023/04/14 01:27:52;;;;;;;;;;;;;;;17.59;46.89;100050.03;5017581;28;1214;-39
2023/04/14 01:30:27;;;;;;;;;;;;;;;16.96;48.28;100055.84;5001522;28;1918;-40
2023/04/14 01:32:52;;;;;;;;;;;;;;;16.47;47.78;100057.75;5033888;28;1020;-39
2023/04/14 01:35:19;;;;;;;;;;;;;;;16.24;47.11;100060.16;5003174;28;1192;-40
2023/04/14 01:37:46;;;;;;;;;;;;;;;16.17;46.60;100065.16;5018608;28;1119;-41
2023/04/14 01:40:13;;;;;;;;;;;;;;;17.38;47.49;100068.75;5018664;28;1156;-45
2023/04/14 01:42:42;;;;;;;;;;;;;;;16.42;48.56;100073.16;5017438;28;1171;-42
2023/04/14 01:45:09;;;;;;;;;;;;;;;16.24;47.18;100071.13;5001099;28;1119;-37
2023/04/14 01:47:37;;;;;;;;;;;;;;;16.14;46.54;100066.53;5009776;28;1167;-42
2023/04/14 01:50:04;;;;;;;;;;;;;;;16.68;47.73;100075.63;5000867;28;1028;-40
2023/04/14 01:52:29;;;;;;;;;;;;;;;16.24;47.63;100071.94;5017099;28;1910;-42
2023/04/14 01:54:55;;;;;;;;;;;;;;;15.94;46.91;100064.81;5018931;28;1175;-40
2023/04/14 01:57:21;;;;;;;;;;;;;;;15.92;46.08;100058.78;5018160;28;1080;-38
2023/04/14 01:59:48;;;;;;;;;;;;;;;16.12;46.83;100054.22;5003861;28;1292;-39
2023/04/14 02:02:14;;;;;;;;;;;;;;;16.66;47.61;100049.56;5018060;28;1250;-40
2023/04/14 02:04:40;;;;;;;;;;;;;;;16.03;47.70;100060.34;5018355;28;1007;-42
2023/04/14 02:07:05;;;;;;;;;;;;;;;17.38;47.04;100052.25;5000919;28;1148;-41
2023/04/14 02:09:31;;;;;;;;;;;;;;;16.55;48.16;100052.44;5016520;28;1079;-37
2023/04/14 02:11:57;;;;;;;;;;;;;;;16.27;47.56;100054.09;5026900;28;1972;-43
2023/04/14 02:14:23;;;;;;;;;;;;;;;16.73;47.86;100047.28;5000844;28;1482;-37
2023/04/14 02:16:48;;;;;;;;;;;;;;;16.42;48.12;100053.94;5016904;28;1174;-40
2023/04/14 02:19:16;;;;;;;;;;;;;;;16.18;47.01;100050.34;5017945;28;1130;-40
2023/04/14 02:21:41;;;;;;;;;;;;;;;17.05;47.52;100051.34;5000696;28;1486;-38
2023/04/14 02:24:07;;;;;;;;;;;;;;;16.31;47.81;100043.34;5020549;28;1119;-41
2023/04/14 02:26:33;;;;;;;;;;;;;;;16.12;47.11;100038.59;5017912;28;1016;-39
2023/04/14 02:29:09;;;;;;;;;;;;;;;16.00;46.41;100038.16;5016606;28;1234;-39
2023/04/14 02:31:35;;;;;;;;;;;;;;;16.87;47.21;100029.03;5021128;28;1975;-41
2023/04/14 02:34:01;;;;;;;;;;;;;;;16.26;47.67;100030.50;5024891;28;1167;-39
2023/04/14 02:36:28;;;;;;;;;;;;;;;16.12;46.86;100035.84;5022260;28;866;-45
2023/04/14 02:38:54;;;;;;;;;;;;;;;17.28;46.99;100039.47;5016322;28;1274;-38
2023/04/14 02:41:27;;;;;;;;;;;;;;;16.39;47.91;100046.28;5025371;28;1301;-40
2023/04/14 02:43:54;;;;;;;;;;;;;;;16.21;47.19;100038.78;5016369;28;1154;-41
2023/04/14 02:46:20;;;;;;;;;;;;;;;16.69;47.41;100047.06;4998721;28;1314;-40
2023/04/14 02:48:46;;;;;;;;;;;;;;;16.08;47.65;100045.75;5010059;28;1084;-40
2023/04/14 02:51:12;;;;;;;;;;;;;;;16.08;46.78;100046.56;5004683;28;1902;-42
2023/04/14 02:53:38;;;;;;;;;;;;;;;16.04;46.96;100047.44;4999966;28;1310;-41
2023/04/14 02:56:10;;;;;;;;;;;;;;;16.54;47.87;100050.00;5000604;28;1342;-43
2023/04/14 02:58:38;;;;;;;;;;;;;;;16.13;47.27;100051.22;5032994;28;1456;-46
2023/04/14 03:01:04;;;;;;;;;;;;;;;17.73;46.33;100041.03;5003400;28;1105;-40
2023/04/14 03:03:32;;;;;;;;;;;;;;;16.56;48.00;100045.84;5015218;28;1241;-46
2023/04/14 03:05:58;;;;;;;;;;;;;;;16.33;47.55;100052.94;5015232;28;1535;-42
2023/04/14 03:08:23;;;;;;;;;;;;;;;16.91;47.79;100051.22;4999835;28;1259;-46
2023/04/14 03:10:49;;;;;;;;;;;;;;;16.31;48.06;100049.66;5016551;28;1906;-42
2023/04/14 03:13:19;;;;;;;;;;;;;;;16.16;47.13;100052.53;5008482;28;1290;-40
2023/04/14 03:15:46;;;;;;;;;;;;;;;16.06;46.25;100051.53;4998728;28;1321;-47
2023/04/14 03:18:13;;;;;;;;;;;;;;;17.27;46.75;100053.53;4997882;28;1321;-43
2023/04/14 03:20:39;;;;;;;;;;;;;;;16.34;47.97;100042.78;5025027;28;1143;-44
2023/04/14 03:23:05;;;;;;;;;;;;;;;16.23;47.72;100042.88;5000849;28;1330;-42
2023/04/14 03:25:39;;;;;;;;;;;;;;;16.55;47.88;100044.22;4988376;28;1143;-41
2023/04/14 03:28:12;;;;;;;;;;;;;;;16.93;47.80;100041.59;4990386;28;2003;-45
2023/04/14 03:30:42;;;;;;;;;;;;;;;18.12;46.44;100043.44;4998960;28;1961;-46
2023/04/14 03:33:11;;;;;;;;;;;;;;;16.77;48.63;100045.59;5012145;28;1196;-42
2023/04/14 03:35:37;;;;;;;;;;;;;;;16.54;47.43;100041.75;5016145;28;1064;-45
2023/04/14 03:38:07;;;;;;;;;;;;;;;16.36;46.88;100044.13;5012394;28;1304;-49
2023/04/14 03:40:34;;;;;;;;;;;;;;;16.13;46.69;100050.38;5022068;28;1547;-47
2023/04/14 03:43:01;;;;;;;;;;;;;;;16.51;47.01;100048.63;5015591;28;1095;-42
2023/04/14 03:45:27;;;;;;;;;;;;;;;16.80;48.19;100038.72;5015144;28;1515;-43
2023/04/14 03:47:56;;;;;;;;;;;;;;;16.45;47.45;100038.81;5006449;28;1111;-45
2023/04/14 03:50:24;;;;;;;;;;;;;;;16.01;47.14;100048.84;5020614;28;1902;-51
2023/04/14 03:52:52;;;;;;;;;;;;;;;16.06;46.23;100051.53;5014997;28;2051;-54
2023/04/14 03:55:18;;;;;;;;;;;;;;;16.81;47.63;100054.88;5016687;28;1103;-52
2023/04/14 03:57:44;;;;;;;;;;;;;;;16.18;47.88;100061.31;5015514;28;1234;-53
2023/04/14 04:00:12;;;;;;;;;;;;;;;16.24;47.95;100065.63;5005659;28;1412;-53
2023/04/14 04:02:42;;;;;;;;;;;;;;;16.56;48.11;100053.25;5015866;28;1123;-51
2023/04/14 04:05:09;;;;;;;;;;;;;;;17.70;47.15;100074.63;4998198;28;1159;-51
2023/04/14 04:07:35;;;;;;;;;;;;;;;18.60;46.36;100063.50;5016592;28;1067;-50
2023/04/14 04:10:01;;;;;;;;;;;;;;;17.22;48.17;100068.16;5016176;28;1080;-50
2023/04/14 04:12:27;;;;;;;;;;;;;;;16.79;47.60;100059.03;5015009;28;1973;-56
2023/04/14 04:14:53;;;;;;;;;;;;;;;16.47;47.14;100071.47;5017853;28;1171;-46
2023/04/14 04:17:19;;;;;;;;;;;;;;;16.33;46.48;100068.59;5002806;28;1421;-47
2023/04/14 04:19:45;;;;;;;;;;;;;;;17.05;48.14;100062.31;5019327;28;1195;-48
2023/04/14 04:22:11;;;;;;;;;;;;;;;16.43;48.20;100074.78;5002833;28;1109;-48
2023/04/14 04:24:37;;;;;;;;;;;;;;;16.30;47.36;100075.47;5026357;28;1059;-49
2023/04/14 04:27:05;;;;;;;;;;;;;;;17.45;47.84;100063.69;5013114;28;1622;-50
2023/04/14 04:29:31;;;;;;;;;;;;;;;16.56;48.56;100066.97;5021813;28;1195;-44
2023/04/14 04:31:58;;;;;;;;;;;;;;;16.39;47.35;100073.72;5018951;28;1980;-47
2023/04/14 04:34:24;;;;;;;;;;;;;;;17.34;47.94;100064.97;5020421;28;1233;-47
2023/04/14 04:36:51;;;;;;;;;;;;;;;16.54;48.35;100066.47;5009965;28;1123;-46
2023/04/14 04:39:17;;;;;;;;;;;;;;;16.41;47.62;100070.69;5021442;28;1123;-52
2023/04/14 04:41:42;;;;;;;;;;;;;;;16.31;46.87;100071.59;5020063;28;1163;-53
2023/04/14 04:44:08;;;;;;;;;;;;;;;17.93;46.89;100081.97;5019487;28;1043;-50
2023/04/14 04:46:43;;;;;;;;;;;;;;;16.72;48.58;100071.19;5018681;28;1317;-47
2023/04/14 04:49:09;;;;;;;;;;;;;;;16.40;48.08;100069.88;5035012;28;1315;-47
2023/04/14 04:51:35;;;;;;;;;;;;;;;17.17;48.06;100070.16;5018890;28;2057;-46
2023/04/14 04:54:02;;;;;;;;;;;;;;;16.49;48.58;100067.31;5018596;28;1150;-47
2023/04/14 04:56:27;;;;;;;;;;;;;;;16.18;47.57;100066.78;5019768;28;1134;-49
2023/04/14 04:58:53;;;;;;;;;;;;;;;16.57;47.80;100058.44;5019278;28;1087;-48
2023/04/14 05:01:18;;;;;;;;;;;;;;;16.83;48.41;100051.84;5023940;28;928;-50
2023/04/14 05:03:44;;;;;;;;;;;;;;;17.66;47.46;100055.16;5019675;28;1160;-47
2023/04/14 05:06:10;;;;;;;;;;;;;;;18.83;46.19;100056.19;5020179;28;1025;-46
2023/04/14 05:08:36;;;;;;;;;;;;;;;18.28;47.48;100054.16;5019734;28;1024;-46
2023/04/14 05:11:01;;;;;;;;;;;;;;;17.43;49.34;100052.19;5019261;28;1976;-47
2023/04/14 05:13:27;;;;;;;;;;;;;;;17.09;50.23;100052.38;5030631;28;1135;-47
2023/04/14 05:16:01;;;;;;;;;;;;;;;16.85;50.46;100057.88;5019628;28;1071;-48
2023/04/14 05:18:27;;;;;;;;;;;;;;;16.60;51.17;100052.38;5019222;28;1106;-47
2023/04/14 05:20:52;;;;;;;;;;;;;;;16.43;51.37;100057.50;5019376;28;1130;-46
2023/04/14 05:23:18;;;;;;;;;;;;;;;16.35;51.62;100055.38;5018922;28;1131;-47
2023/04/14 05:25:44;;;;;;;;;;;;;;;16.19;51.76;100057.47;5023288;28;971;-49
2023/04/14 05:28:10;;;;;;;;;;;;;;;16.11;51.74;100066.31;5019086;28;1139;-49
2023/04/14 05:30:35;;;;;;;;;;;;;;;16.00;51.94;100052.66;5019152;28;1910;-51
2023/04/14 05:33:01;;;;;;;;;;;;;;;15.89;52.43;100060.19;5018808;28;1127;-46
2023/04/14 05:35:26;;;;;;;;;;;;;;;15.74;52.41;100058.34;5018788;28;1207;-46
2023/04/14 05:37:52;;;;;;;;;;;;;;;15.70;52.40;100068.22;5018847;28;1405;-45
2023/04/14 05:40:19;;;;;;;;;;;;;;;15.61;52.61;100063.63;5019383;28;1047;-46
2023/04/14 05:42:44;;;;;;;;;;;;;;;15.51;53.06;100064.53;5019094;28;1214;-47
2023/04/14 05:45:10;;;;;;;;;;;;;;;15.50;52.62;100057.41;5018377;28;1084;-45
2023/04/14 05:47:36;;;;;;;;;;;;;;;15.37;52.98;100056.91;5018942;28;1500;-51
2023/04/14 05:50:02;;;;;;;;;;;;;;;15.33;52.76;100053.13;5025472;28;1563;-48
2023/04/14 05:52:28;;;;;;;;;;;;;;;15.79;52.25;100054.75;5018422;28;1906;-47
2023/04/14 05:54:54;;;;;;;;;;;;;;;17.21;49.32;100052.78;5018627;28;1106;-45
2023/04/14 05:57:20;;;;;;;;;;;;;;;16.49;50.92;100052.78;5018303;28;1072;-46
2023/04/14 05:59:45;;;;;;;;;;;;;;;15.96;52.02;100050.81;5018470;28;1135;-47
2023/04/14 06:02:11;;;;;;;;;;;;;;;15.71;52.96;100053.44;5019471;28;968;-47
2023/04/14 06:04:36;;;;;;;;;;;;;;;15.60;52.96;100057.34;5018245;28;1230;-49
2023/04/14 06:07:02;;;;;;;;;;;;;;;15.46;53.00;100053.59;5018208;28;1023;-47
2023/04/14 06:09:28;;;;;;;;;;;;;;;15.48;53.31;100051.41;5018397;28;1245;-49
2023/04/14 06:11:54;;;;;;;;;;;;;;;17.04;49.64;100044.19;5018211;28;1906;-51
2023/04/14 06:14:20;;;;;;;;;;;;;;;16.54;50.45;100041.75;5018224;28;942;-49
2023/04/14 06:16:46;;;;;;;;;;;;;;;16.12;51.96;100051.47;5018232;28;1111;-49
2023/04/14 06:19:11;;;;;;;;;;;;;;;15.84;52.38;100045.69;5018290;28;1091;-45
2023/04/14 06:21:37;;;;;;;;;;;;;;;15.66;52.94;100050.72;5018343;28;1051;-44
2023/04/14 06:24:03;;;;;;;;;;;;;;;15.56;53.06;100042.59;5018077;28;1043;-46
2023/04/14 06:26:28;;;;;;;;;;;;;;;15.44;53.37;100044.84;5020649;28;995;-45
2023/04/14 06:28:56;;;;;;;;;;;;;;;15.32;53.42;100042.44;5017845;28;1151;-45
2023/04/14 06:31:21;;;;;;;;;;;;;;;15.96;52.36;100040.63;5017943;28;1898;-47
2023/04/14 06:33:47;;;;;;;;;;;;;;;17.21;49.32;100033.53;5018169;28;1225;-47
2023/04/14 06:36:15;;;;;;;;;;;;;;;16.20;51.75;100042.63;5017400;28;1063;-46
2023/04/14 06:38:41;;;;;;;;;;;;;;;15.82;52.47;100047.91;5025696;28;905;-46
2023/04/14 06:41:06;;;;;;;;;;;;;;;15.66;53.03;100050.72;5018236;28;1114;-47
2023/04/14 06:43:32;;;;;;;;;;;;;;;15.52;53.30;100039.56;5017795;28;1172;-46
2023/04/14 06:45:57;;;;;;;;;;;;;;;15.39;53.30;100046.50;5031071;28;1293;-48
2023/04/14 06:48:23;;;;;;;;;;;;;;;15.75;53.00;100050.91;5017891;28;996;-45
2023/04/14 06:50:55;;;;;;;;;;;;;;;17.17;49.34;100048.19;5019767;28;1911;-50
2023/04/14 06:53:20;;;;;;;;;;;;;;;16.28;51.60;100055.72;5017858;28;1060;-49
2023/04/14 06:55:47;;;;;;;;;;;;;;;15.88;52.61;100046.78;5017536;28;1143;-47
2023/04/14 06:58:13;;;;;;;;;;;;;;;15.67;53.05;100052.38;5017541;28;1075;-46
2023/04/14 07:00:38;;;;;;;;;;;;;;;15.57;53.02;100052.41;5018686;28;1222;-46
2023/04/14 07:03:04;;;;;;;;;;;;;;;15.43;53.50;100049.53;5026287;28;1114;-43
2023/04/14 07:05:30;;;;;;;;;;;;;;;15.27;53.76;100045.22;5017205;28;1047;-49
2023/04/14 07:07:55;;;;;;;;;;;;;;;16.26;51.79;100044.22;5017709;28;1027;-51
2023/04/14 07:10:21;;;;;;;;;;;;;;;17.07;49.41;100033.44;5016945;28;1155;-51
2023/04/14 07:12:46;;;;;;;;;;;;;;;16.15;51.87;100028.97;5018549;28;1906;-51
2023/04/14 07:15:13;;;;;;;;;;;;;;;15.80;52.77;100028.19;5019265;28;1143;-50
2023/04/14 07:17:38;;;;;;;;;;;;;;;15.65;53.30;100040.84;5017339;28;1186;-44
2023/04/14 07:20:05;;;;;;;;;;;;;;;15.53;53.20;100034.94;5017533;28;1062;-47
2023/04/14 07:22:30;;;;;;;;;;;;;;;15.43;53.50;100029.50;5017401;28;1059;-50
2023/04/14 07:24:56;;;;;;;;;;;;;;;15.33;53.54;100031.22;5018666;28;1131;-50
2023/04/14 07:27:21;;;;;;;;;;;;;;;15.38;53.58;100028.44;5027177;28;1125;-46
2023/04/14 07:29:47;;;;;;;;;;;;;;;16.90;50.47;100024.88;5016506;28;1195;-51
2023/04/14 07:32:12;;;;;;;;;;;;;;;16.62;50.56;100021.91;5016637;28;1906;-48
2023/04/14 07:34:42;;;;;;;;;;;;;;;16.02;52.32;100033.19;5016624;28;1178;-51
2023/04/14 07:37:08;;;;;;;;;;;;;;;15.74;53.14;100028.19;5016261;28;1039;-49
2023/04/14 07:39:34;;;;;;;;;;;;;;;15.60;53.39;100029.94;5016249;28;1035;-48
2023/04/14 07:42:00;;;;;;;;;;;;;;;16.41;51.53;100033.09;5016533;28;1103;-50
2023/04/14 07:44:26;;;;;;;;;;;;;;;16.64;50.79;100024.34;5016741;28;1135;-49
2023/04/14 07:46:51;;;;;;;;;;;;;;;16.01;52.30;100032.38;5016388;28;1190;-51
2023/04/14 07:49:17;;;;;;;;;;;;;;;15.73;53.21;100018.31;5016218;28;1099;-50
2023/04/14 07:51:43;;;;;;;;;;;;;;;15.66;53.30;100017.84;5016809;28;1895;-46
2023/04/14 07:54:08;;;;;;;;;;;;;;;15.53;53.59;100015.75;5017017;28;1082;-46
2023/04/14 07:56:34;;;;;;;;;;;;;;;15.43;53.42;100013.91;5016836;28;1163;-46
2023/04/14 07:59:00;;;;;;;;;;;;;;;16.07;52.35;100005.72;5016447;28;1229;-46
2023/04/14 08:01:25;;;;;;;;;;;;;;;17.02;49.65;100000.56;5022542;28;1142;-45
2023/04/14 08:03:51;;;;;;;;;;;;;;;16.13;52.10;100004.59;5016270;28;1166;-49
2023/04/14 08:06:17;;;;;;;;;;;;;;;15.81;52.84;100002.38;5025691;28;1448;-47
2023/04/14 08:08:43;;;;;;;;;;;;;;;15.66;53.10;99995.91;5019527;28;1034;-45
2023/04/14 08:11:09;;;;;;;;;;;;;;;15.55;53.32;100002.56;5016105;28;1887;-47
2023/04/14 08:13:34;;;;;;;;;;;;;;;15.44;53.39;99993.59;5016964;28;1241;-48
2023/04/14 08:16:00;;;;;;;;;;;;;;;15.34;53.78;100002.72;5016617;28;1040;-47
2023/04/14 08:18:26;;;;;;;;;;;;;;;16.60;51.05;99982.94;5016489;28;1179;-46
2023/04/14 08:20:51;;;;;;;;;;;;;;;16.90;49.91;99983.69;5016483;28;1126;-49
2023/04/14 08:23:17;;;;;;;;;;;;;;;16.10;52.07;99982.41;5016238;28;1178;-47
2023/04/14 08:25:43;;;;;;;;;;;;;;;15.84;53.09;99988.13;5020822;28;1063;-49
2023/04/14 08:28:09;;;;;;;;;;;;;;;15.66;53.33;99998.66;5019043;28;1174;-50
2023/04/14 08:30:34;;;;;;;;;;;;;;;15.51;53.77;99996.03;5016397;28;1902;-49
2023/04/14 08:33:00;;;;;;;;;;;;;;;15.40;53.93;99987.06;5016420;28;1050;-49
2023/04/14 08:35:25;;;;;;;;;;;;;;;15.31;54.02;99986.84;5016125;28;1187;-48
2023/04/14 08:37:51;;;;;;;;;;;;;;;16.37;51.99;99979.09;5015988;28;1133;-47
2023/04/14 08:40:17;;;;;;;;;;;;;;;17.16;49.41;99973.16;5016359;28;1289;-51
2023/04/14 08:42:44;;;;;;;;;;;;;;;16.20;52.13;99977.63;5014974;28;1092;-48
2023/04/14 08:45:10;;;;;;;;;;;;;;;15.85;52.99;99982.34;5016244;28;1228;-49
2023/04/14 08:47:36;;;;;;;;;;;;;;;15.66;53.29;99982.19;5016070;28;1060;-50
2023/04/14 08:50:06;;;;;;;;;;;;;;;15.53;53.66;99977.41;5020392;28;1151;-46
2023/04/14 08:52:34;;;;;;;;;;;;;;;15.46;53.89;99979.63;5018860;28;1906;-47
2023/04/14 08:55:00;;;;;;;;;;;;;;;15.31;54.07;99973.16;5016076;28;1031;-49
2023/04/14 08:57:25;;;;;;;;;;;;;;;15.27;53.94;99965.78;5015032;28;1152;-48
2023/04/14 08:59:51;;;;;;;;;;;;;;;16.72;50.77;99975.09;5016140;28;1036;-54
2023/04/14 09:02:19;;;;;;;;;;;;;;;16.42;51.60;99977.13;5022056;28;1084;-56
2023/04/14 09:04:45;;;;;;;;;;;;;;;15.84;52.95;99968.94;5019674;28;1132;-54
2023/04/14 09:07:11;;;;;;;;;;;;;;;15.68;53.51;99969.03;5019825;28;1190;-50
2023/04/14 09:09:36;;;;;;;;;;;;;;;15.56;53.54;99980.38;5018767;28;1111;-56
2023/04/14 09:12:02;;;;;;;;;;;;;;;15.40;54.15;99965.97;5017775;28;1905;-55
2023/04/14 09:14:28;;;;;;;;;;;;;;;15.33;54.19;99968.22;5027227;28;1123;-53
2023/04/14 09:16:55;;;;;;;;;;;;;;;16.77;51.08;99963.22;5021362;28;1077;-54
2023/04/14 09:19:21;;;;;;;;;;;;;;;16.61;51.26;99957.13;5019101;28;1050;-54
2023/04/14 09:21:46;;;;;;;;;;;;;;;15.97;52.88;99962.78;5019216;28;1095;-53
2023/04/14 09:24:12;;;;;;;;;;;;;;;15.72;53.52;99956.41;5019021;28;1060;-53
2023/04/14 09:26:37;;;;;;;;;;;;;;;15.60;53.51;99957.88;5021909;28;1088;-50
2023/04/14 09:29:03;;;;;;;;;;;;;;;15.48;53.92;99956.31;5019315;28;1183;-56
2023/04/14 09:31:29;;;;;;;;;;;;;;;15.36;54.04;99953.94;5018982;28;1977;-55
2023/04/14 09:33:54;;;;;;;;;;;;;;;15.59;53.84;99951.56;5018903;28;1083;-53
2023/04/14 09:36:21;;;;;;;;;;;;;;;17.08;50.38;99940.88;5018919;28;1120;-53
2023/04/14 09:38:47;;;;;;;;;;;;;;;16.33;51.93;99945.94;5018579;28;1032;-52
2023/04/14 09:41:16;;;;;;;;;;;;;;;15.96;53.20;99943.88;5023338;28;1202;-55
2023/04/14 09:43:41;;;;;;;;;;;;;;;15.67;53.59;99945.47;5026964;28;1159;-54
2023/04/14 09:46:08;;;;;;;;;;;;;;;15.59;53.80;99945.28;5031731;28;1045;-53
2023/04/14 09:48:35;;;;;;;;;;;;;;;15.47;53.91;99949.19;5018906;28;1146;-48
2023/04/14 09:51:05;;;;;;;;;;;;;;;15.48;54.16;99950.84;5022856;28;1914;-55
2023/04/14 09:53:32;;;;;;;;;;;;;;;17.08;50.52;99935.38;5031309;28;1007;-53
2023/04/14 09:56:02;;;;;;;;;;;;;;;16.65;51.16;99938.13;5019241;28;1218;-53
2023/04/14 09:58:34;;;;;;;;;;;;;;;16.04;52.77;99946.78;5019076;28;1091;-52
2023/04/14 10:01:01;;;;;;;;;;;;;;;15.79;53.70;99949.75;5018367;28;1198;-53
2023/04/14 10:03:33;;;;;;;;;;;;;;;15.68;53.80;99949.88;5029975;28;1182;-53
2023/04/14 10:06:00;;;;;;;;;;;;;;;15.50;54.26;99939.59;5018103;28;1121;-55
2023/04/14 10:08:41;;;;;;;;;;;;;;;15.49;54.35;99941.50;5018006;28;1127;-55
2023/04/14 10:11:22;;;;;;;;;;;;;;;17.01;50.76;99943.19;5018193;28;1977;-56
2023/04/14 10:13:48;;;;;;;;;;;;;;;16.05;53.05;99945.69;5018603;28;1205;-57
2023/04/14 10:16:14;;;;;;;;;;;;;;;15.83;53.82;99953.59;5022785;28;890;-55
2023/04/14 10:18:40;;;;;;;;;;;;;;;15.65;54.15;99966.84;5018801;28;1104;-55
2023/04/14 10:21:06;;;;;;;;;;;;;;;15.48;54.49;99960.97;5018132;28;1080;-53
2023/04/14 10:23:32;;;;;;;;;;;;;;;15.44;54.29;99966.19;5016618;28;1076;-55
2023/04/14 10:25:57;;;;;;;;;;;;;;;15.36;54.42;99958.59;5017607;28;1119;-56
2023/04/14 10:28:23;;;;;;;;;;;;;;;15.28;54.38;99957.28;5029700;28;944;-49
2023/04/14 10:30:49;;;;;;;;;;;;;;;16.59;51.84;99953.84;5018422;28;1906;-55
2023/04/14 10:33:15;;;;;;;;;;;;;;;16.65;51.64;99960.09;5024636;28;1175;-55
2023/04/14 10:35:41;;;;;;;;;;;;;;;15.94;53.45;99952.38;5010421;28;1099;-56
2023/04/14 10:38:07;;;;;;;;;;;;;;;15.72;54.14;99959.16;5018016;28;1178;-55
2023/04/14 10:40:59;;;;;;;;;;;;;;;15.56;54.31;99963.13;5024079;28;948;-55
2023/04/14 10:43:28;;;;;;;;;;;;;;;15.46;54.23;99965.91;5005411;28;1135;-59
2023/04/14 10:45:53;;;;;;;;;;;;;;;15.35;54.56;99960.53;5011291;28;1203;-53
2023/04/14 10:48:19;;;;;;;;;;;;;;;15.29;54.49;99956.19;4998055;28;1334;-55
2023/04/14 10:50:46;;;;;;;;;;;;;;;15.24;54.69;99950.75;5004666;28;1910;-54
2023/04/14 10:53:11;;;;;;;;;;;;;;;16.67;51.73;99958.69;5023748;28;1324;-53
2023/04/14 10:55:44;;;;;;;;;;;;;;;16.55;51.95;99950.06;5017326;28;1298;-55
2023/04/14 10:58:16;;;;;;;;;;;;;;;15.94;53.57;99943.34;5019211;28;1088;-57
2023/04/14 11:00:42;;;;;;;;;;;;;;;15.66;54.17;99943.84;5023608;28;1174;-55
2023/04/14 11:03:11;;;;;;;;;;;;;;;15.57;54.42;99951.03;5015948;28;1064;-54
2023/04/14 11:05:50;;;;;;;;;;;;;;;15.46;54.46;99947.56;5017491;28;1146;-53
2023/04/14 11:08:25;;;;;;;;;;;;;;;15.96;53.67;99938.38;5009246;28;1139;-59
2023/04/14 11:11:01;;;;;;;;;;;;;;;17.06;50.66;99930.19;5026370;28;1910;-56
2023/04/14 11:13:27;;;;;;;;;;;;;;;16.16;52.92;99942.81;5017605;28;1055;-57
2023/04/14 11:16:02;;;;;;;;;;;;;;;15.83;53.76;99934.41;5023679;28;1028;-57
2023/04/14 11:18:28;;;;;;;;;;;;;;;15.66;54.20;99934.81;5016911;28;1167;-58
2023/04/14 11:21:00;;;;;;;;;;;;;;;15.64;54.04;99954.28;5017095;28;1146;-57
2023/04/14 11:23:26;;;;;;;;;;;;;;;15.46;54.38;99944.00;5016599;28;1048;-57
2023/04/14 11:25:51;;;;;;;;;;;;;;;15.40;54.59;99944.06;5002816;28;1155;-54
2023/04/14 11:28:26;;;;;;;;;;;;;;;15.31;54.78;99940.28;5019345;28;825;-56
2023/04/14 11:30:52;;;;;;;;;;;;;;;16.55;52.36;99936.34;5003748;28;1977;-57
2023/04/14 11:33:17;;;;;;;;;;;;;;;16.52;52.21;99940.50;5003056;28;1278;-58
2023/04/14 11:35:43;;;;;;;;;;;;;;;15.98;53.61;99945.22;5016827;28;1442;-56
2023/04/14 11:38:10;;;;;;;;;;;;;;;15.72;54.31;99939.97;5016583;28;1123;-56
2023/04/14 11:40:35;;;;;;;;;;;;;;;15.60;54.40;99945.00;5024334;28;857;-59
2023/04/14 11:43:01;;;;;;;;;;;;;;;15.48;54.81;99944.53;5016791;28;1115;-62
2023/04/14 11:45:27;;;;;;;;;;;;;;;15.40;54.75;99938.56;5016129;28;1293;-58
2023/04/14 11:47:59;;;;;;;;;;;;;;;15.32;54.68;99941.94;5016036;28;1111;-57
2023/04/14 11:50:26;;;;;;;;;;;;;;;15.28;55.00;99942.75;5016538;28;1083;-60
2023/04/14 11:52:53;;;;;;;;;;;;;;;16.65;52.31;99955.44;5019699;28;1910;-59
2023/04/14 11:55:22;;;;;;;;;;;;;;;16.27;53.14;99958.09;5021943;28;1067;-59
2023/04/14 11:57:48;;;;;;;;;;;;;;;15.81;54.25;99958.53;5021281;28;1241;-58
2023/04/14 12:00:13;;;;;;;;;;;;;;;15.65;54.48;99958.63;5004798;28;1379;-62
2023/04/14 12:02:43;;;;;;;;;;;;;;;15.50;54.76;99958.75;4997488;28;1251;-61
2023/04/14 12:05:08;;;;;;;;;;;;;;;15.36;54.90;99953.13;5022313;28;974;-60
2023/04/14 12:07:34;;;;;;;;;;;;;;;15.28;55.09;99956.44;5015880;28;1285;-57
2023/04/14 12:10:01;;;;;;;;;;;;;;;15.97;54.27;99951.78;5016239;28;1055;-58
2023/04/14 12:12:28;;;;;;;;;;;;;;;17.18;51.05;99950.88;5016260;28;1981;-57
2023/04/14 12:14:53;;;;;;;;;;;;;;;16.19;53.31;99955.97;5016595;28;1123;-56
2023/04/14 12:17:20;;;;;;;;;;;;;;;15.89;53.92;99955.16;5031198;28;1014;-57
2023/04/14 12:19:46;;;;;;;;;;;;;;;15.66;54.79;99967.69;5016226;28;1059;-57
2023/04/14 12:22:11;;;;;;;;;;;;;;;15.54;54.95;99960.66;5016319;28;1178;-55
2023/04/14 12:24:37;;;;;;;;;;;;;;;15.39;54.91;99955.31;5016548;28;1127;-53
2023/04/14 12:27:05;;;;;;;;;;;;;;;15.36;55.18;99950.38;5016685;28;1512;-58
2023/04/14 12:29:36;;;;;;;;;;;;;;;16.86;52.08;99946.94;5009616;28;1194;-56
2023/04/14 12:32:08;;;;;;;;;;;;;;;16.32;53.22;99947.03;5015355;28;1901;-56
2023/04/14 12:34:34;;;;;;;;;;;;;;;15.82;54.33;99939.06;5015879;28;1114;-60
2023/04/14 12:37:04;;;;;;;;;;;;;;;15.66;54.72;99941.09;5018596;28;1476;-58
2023/04/14 12:39:30;;;;;;;;;;;;;;;15.59;54.74;99926.91;5023365;28;1306;-59
2023/04/14 12:41:57;;;;;;;;;;;;;;;15.47;54.83;99927.28;5027401;28;1082;-59
2023/04/14 12:44:23;;;;;;;;;;;;;;;15.33;55.00;99920.81;5019500;28;1080;-58
2023/04/14 12:46:49;;;;;;;;;;;;;;;15.29;55.16;99919.75;5019527;28;1014;-58
2023/04/14 12:49:31;;;;;;;;;;;;;;;15.21;55.16;99921.19;5019566;28;1171;-60